sensor_id;sensor_type;location;lat;lon;timestamp;P1;durP1;ratioP1;P2;durP2;ratioP2
1925;SDS011;964;42.606;23.588;2023-07-16T00:00:01;7.00;;;5.20;;
1925;SDS011;964;42.606;23.588;2023-07-16T00:02:29;7.20;;;5.90;;
1925;SDS011;964;42.606;23.588;2023-07-16T00:04:56;7.50;;;5.83;;
1925;SDS011;964;42.606;23.588;2023-07-16T00:07:22;6.17;;;5.33;;
1925;SDS011;964;42.606;23.588;2023-07-16T00:09:49;6.10;;;5.50;;
1925;SDS011;964;42.606;23.588;2023-07-16T00:12:17;5.73;;;5.23;;
1925;SDS011;964;42.606;23.588;2023-07-16T00:14:43;8.57;;;5.53;;
1925;SDS011;964;42.606;23.588;2023-07-16T00:17:10;9.43;;;5.93;;
1925;SDS011;964;42.606;23.588;2023-07-16T00:19:37;6.00;;;5.30;;
1925;SDS011;964;42.606;23.588;2023-07-16T00:22:03;6.97;;;4.90;;
1925;SDS011;964;42.606;23.588;2023-07-16T00:24:30;5.90;;;5.30;;
1925;SDS011;964;42.606;23.588;2023-07-16T00:26:57;6.30;;;5.13;;
1925;SDS011;964;42.606;23.588;2023-07-16T00:29:25;9.40;;;5.13;;
1925;SDS011;964;42.606;23.588;2023-07-16T00:31:52;9.43;;;5.37;;
1925;SDS011;964;42.606;23.588;2023-07-16T00:34:18;6.00;;;5.43;;
1925;SDS011;964;42.606;23.588;2023-07-16T00:36:45;4.87;;;4.43;;
1925;SDS011;964;42.606;23.588;2023-07-16T00:39:12;5.60;;;4.70;;
1925;SDS011;964;42.606;23.588;2023-07-16T00:41:38;6.17;;;4.20;;
1925;SDS011;964;42.606;23.588;2023-07-16T00:44:05;5.07;;;4.63;;
1925;SDS011;964;42.606;23.588;2023-07-16T00:46:33;6.03;;;5.00;;
1925;SDS011;964;42.606;23.588;2023-07-16T00:49:00;5.73;;;5.17;;
1925;SDS011;964;42.606;23.588;2023-07-16T00:51:27;7.20;;;5.17;;
1925;SDS011;964;42.606;23.588;2023-07-16T00:53:55;9.63;;;5.83;;
1925;SDS011;964;42.606;23.588;2023-07-16T00:56:22;5.33;;;4.83;;
1925;SDS011;964;42.606;23.588;2023-07-16T00:58:49;6.60;;;4.90;;
1925;SDS011;964;42.606;23.588;2023-07-16T01:01:16;8.30;;;5.80;;
1925;SDS011;964;42.606;23.588;2023-07-16T01:03:44;20.70;;;7.83;;
1925;SDS011;964;42.606;23.588;2023-07-16T01:06:11;9.37;;;5.50;;
1925;SDS011;964;42.606;23.588;2023-07-16T01:08:45;17.10;;;6.97;;
1925;SDS011;964;42.606;23.588;2023-07-16T01:11:15;14.63;;;7.60;;
1925;SDS011;964;42.606;23.588;2023-07-16T01:13:42;9.63;;;6.20;;
1925;SDS011;964;42.606;23.588;2023-07-16T01:16:17;7.03;;;5.37;;
1925;SDS011;964;42.606;23.588;2023-07-16T01:18:47;8.80;;;5.43;;
1925;SDS011;964;42.606;23.588;2023-07-16T01:21:14;6.43;;;5.77;;
1925;SDS011;964;42.606;23.588;2023-07-16T01:23:55;7.90;;;6.40;;
1925;SDS011;964;42.606;23.588;2023-07-16T01:26:38;12.40;;;6.50;;
1925;SDS011;964;42.606;23.588;2023-07-16T01:29:32;6.17;;;5.37;;
1925;SDS011;964;42.606;23.588;2023-07-16T01:32:01;7.13;;;4.97;;
1925;SDS011;964;42.606;23.588;2023-07-16T01:34:32;5.57;;;5.00;;
1925;SDS011;964;42.606;23.588;2023-07-16T01:37:00;7.70;;;5.17;;
1925;SDS011;964;42.606;23.588;2023-07-16T01:39:27;6.60;;;5.37;;
1925;SDS011;964;42.606;23.588;2023-07-16T01:41:54;5.60;;;4.90;;
1925;SDS011;964;42.606;23.588;2023-07-16T01:44:21;6.53;;;5.47;;
1925;SDS011;964;42.606;23.588;2023-07-16T01:47:02;7.50;;;5.50;;
1925;SDS011;964;42.606;23.588;2023-07-16T01:49:32;6.23;;;5.17;;
1925;SDS011;964;42.606;23.588;2023-07-16T01:51:59;6.40;;;4.70;;
1925;SDS011;964;42.606;23.588;2023-07-16T01:54:25;7.10;;;5.30;;
1925;SDS011;964;42.606;23.588;2023-07-16T01:56:52;5.97;;;4.83;;
1925;SDS011;964;42.606;23.588;2023-07-16T01:59:19;5.23;;;4.73;;
1925;SDS011;964;42.606;23.588;2023-07-16T02:01:46;6.30;;;5.10;;
1925;SDS011;964;42.606;23.588;2023-07-16T02:04:14;7.63;;;5.10;;
1925;SDS011;964;42.606;23.588;2023-07-16T02:06:40;5.37;;;4.43;;
1925;SDS011;964;42.606;23.588;2023-07-16T02:09:07;6.73;;;5.30;;
1925;SDS011;964;42.606;23.588;2023-07-16T02:11:34;5.10;;;4.57;;
1925;SDS011;964;42.606;23.588;2023-07-16T02:14:01;7.20;;;5.17;;
1925;SDS011;964;42.606;23.588;2023-07-16T02:16:28;6.13;;;5.47;;
1925;SDS011;964;42.606;23.588;2023-07-16T02:18:54;7.23;;;4.93;;
1925;SDS011;964;42.606;23.588;2023-07-16T02:21:23;5.60;;;5.10;;
1925;SDS011;964;42.606;23.588;2023-07-16T02:23:49;7.17;;;5.50;;
1925;SDS011;964;42.606;23.588;2023-07-16T02:26:16;5.13;;;4.63;;
1925;SDS011;964;42.606;23.588;2023-07-16T02:28:43;5.80;;;4.73;;
1925;SDS011;964;42.606;23.588;2023-07-16T02:31:10;7.13;;;4.90;;
1925;SDS011;964;42.606;23.588;2023-07-16T02:33:36;6.60;;;5.20;;
1925;SDS011;964;42.606;23.588;2023-07-16T02:36:03;5.73;;;4.70;;
1925;SDS011;964;42.606;23.588;2023-07-16T02:38:32;5.80;;;4.90;;
1925;SDS011;964;42.606;23.588;2023-07-16T02:40:59;5.27;;;4.77;;
1925;SDS011;964;42.606;23.588;2023-07-16T02:43:25;5.13;;;4.63;;
1925;SDS011;964;42.606;23.588;2023-07-16T02:45:52;6.30;;;4.77;;
1925;SDS011;964;42.606;23.588;2023-07-16T02:48:19;7.17;;;4.53;;
1925;SDS011;964;42.606;23.588;2023-07-16T02:50:45;6.50;;;5.23;;
1925;SDS011;964;42.606;23.588;2023-07-16T02:53:12;5.80;;;5.20;;
1925;SDS011;964;42.606;23.588;2023-07-16T02:55:40;6.00;;;5.40;;
1925;SDS011;964;42.606;23.588;2023-07-16T02:58:07;7.33;;;5.10;;
1925;SDS011;964;42.606;23.588;2023-07-16T03:00:33;5.80;;;4.90;;
1925;SDS011;964;42.606;23.588;2023-07-16T03:03:00;6.00;;;5.40;;
1925;SDS011;964;42.606;23.588;2023-07-16T03:05:27;5.87;;;5.00;;
1925;SDS011;964;42.606;23.588;2023-07-16T03:07:54;7.40;;;5.80;;
1925;SDS011;964;42.606;23.588;2023-07-16T03:10:21;5.43;;;4.93;;
1925;SDS011;964;42.606;23.588;2023-07-16T03:12:53;12.33;;;5.30;;
1925;SDS011;964;42.606;23.588;2023-07-16T03:15:20;7.53;;;4.73;;
1925;SDS011;964;42.606;23.588;2023-07-16T03:17:46;5.80;;;5.30;;
1925;SDS011;964;42.606;23.588;2023-07-16T03:20:13;9.20;;;6.17;;
1925;SDS011;964;42.606;23.588;2023-07-16T03:22:40;8.90;;;5.60;;
1925;SDS011;964;42.606;23.588;2023-07-16T03:25:07;5.53;;;5.03;;
1925;SDS011;964;42.606;23.588;2023-07-16T03:27:34;8.40;;;5.23;;
1925;SDS011;964;42.606;23.588;2023-07-16T03:30:02;5.70;;;5.20;;
1925;SDS011;964;42.606;23.588;2023-07-16T03:32:30;6.20;;;5.30;;
1925;SDS011;964;42.606;23.588;2023-07-16T03:34:56;6.10;;;5.40;;
1925;SDS011;964;42.606;23.588;2023-07-16T03:37:23;6.50;;;5.90;;
1925;SDS011;964;42.606;23.588;2023-07-16T03:39:50;6.03;;;5.53;;
1925;SDS011;964;42.606;23.588;2023-07-16T03:42:17;5.97;;;5.47;;
1925;SDS011;964;42.606;23.588;2023-07-16T03:44:43;7.27;;;5.07;;
1925;SDS011;964;42.606;23.588;2023-07-16T03:47:12;6.27;;;4.97;;
1925;SDS011;964;42.606;23.588;2023-07-16T03:49:38;8.20;;;6.07;;
1925;SDS011;964;42.606;23.588;2023-07-16T03:52:05;6.57;;;5.37;;
1925;SDS011;964;42.606;23.588;2023-07-16T03:54:32;7.17;;;5.63;;
1925;SDS011;964;42.606;23.588;2023-07-16T03:56:59;6.23;;;5.33;;
1925;SDS011;964;42.606;23.588;2023-07-16T03:59:25;9.90;;;5.17;;
1925;SDS011;964;42.606;23.588;2023-07-16T04:01:52;8.70;;;5.93;;
1925;SDS011;964;42.606;23.588;2023-07-16T04:04:20;8.37;;;5.70;;
1925;SDS011;964;42.606;23.588;2023-07-16T04:06:47;5.80;;;5.20;;
1925;SDS011;964;42.606;23.588;2023-07-16T04:09:13;5.77;;;5.27;;
1925;SDS011;964;42.606;23.588;2023-07-16T04:11:40;6.87;;;6.00;;
1925;SDS011;964;42.606;23.588;2023-07-16T04:14:07;5.67;;;4.53;;
1925;SDS011;964;42.606;23.588;2023-07-16T04:16:33;7.50;;;5.53;;
1925;SDS011;964;42.606;23.588;2023-07-16T04:19:00;9.73;;;5.10;;
1925;SDS011;964;42.606;23.588;2023-07-16T04:21:28;6.90;;;5.00;;
1925;SDS011;964;42.606;23.588;2023-07-16T04:23:54;5.87;;;5.20;;
1925;SDS011;964;42.606;23.588;2023-07-16T04:26:21;5.53;;;5.03;;
1925;SDS011;964;42.606;23.588;2023-07-16T04:28:47;6.10;;;5.53;;
1925;SDS011;964;42.606;23.588;2023-07-16T04:31:14;6.67;;;5.10;;
1925;SDS011;964;42.606;23.588;2023-07-16T04:33:41;5.60;;;5.10;;
1925;SDS011;964;42.606;23.588;2023-07-16T04:36:07;6.03;;;5.43;;
1925;SDS011;964;42.606;23.588;2023-07-16T04:38:35;5.37;;;4.30;;
1925;SDS011;964;42.606;23.588;2023-07-16T04:41:02;6.33;;;5.10;;
1925;SDS011;964;42.606;23.588;2023-07-16T04:43:29;5.53;;;5.13;;
1925;SDS011;964;42.606;23.588;2023-07-16T04:45:55;5.80;;;4.77;;
1925;SDS011;964;42.606;23.588;2023-07-16T04:48:22;5.63;;;5.07;;
1925;SDS011;964;42.606;23.588;2023-07-16T04:50:50;5.40;;;4.90;;
1925;SDS011;964;42.606;23.588;2023-07-16T04:53:17;6.73;;;5.40;;
1925;SDS011;964;42.606;23.588;2023-07-16T04:55:45;10.80;;;5.20;;
1925;SDS011;964;42.606;23.588;2023-07-16T04:58:12;5.27;;;4.80;;
1925;SDS011;964;42.606;23.588;2023-07-16T05:00:39;6.87;;;4.97;;
1925;SDS011;964;42.606;23.588;2023-07-16T05:03:06;8.90;;;4.57;;
1925;SDS011;964;42.606;23.588;2023-07-16T05:05:32;6.17;;;5.27;;
1925;SDS011;964;42.606;23.588;2023-07-16T05:08:00;6.03;;;5.27;;
1925;SDS011;964;42.606;23.588;2023-07-16T05:10:27;6.00;;;5.50;;
1925;SDS011;964;42.606;23.588;2023-07-16T05:12:55;6.00;;;4.70;;
1925;SDS011;964;42.606;23.588;2023-07-16T05:15:21;7.40;;;5.20;;
1925;SDS011;964;42.606;23.588;2023-07-16T05:17:48;8.33;;;4.90;;
1925;SDS011;964;42.606;23.588;2023-07-16T05:20:14;6.63;;;5.27;;
1925;SDS011;964;42.606;23.588;2023-07-16T05:22:41;5.13;;;4.73;;
1925;SDS011;964;42.606;23.588;2023-07-16T05:25:08;6.17;;;5.23;;
1925;SDS011;964;42.606;23.588;2023-07-16T05:27:35;5.97;;;4.70;;
1925;SDS011;964;42.606;23.588;2023-07-16T05:30:03;11.13;;;4.90;;
1925;SDS011;964;42.606;23.588;2023-07-16T05:32:30;6.50;;;4.90;;
1925;SDS011;964;42.606;23.588;2023-07-16T05:34:57;5.30;;;4.80;;
1925;SDS011;964;42.606;23.588;2023-07-16T05:37:24;5.07;;;4.53;;
1925;SDS011;964;42.606;23.588;2023-07-16T05:39:52;4.70;;;4.30;;
1925;SDS011;964;42.606;23.588;2023-07-16T05:42:19;4.90;;;4.03;;
1925;SDS011;964;42.606;23.588;2023-07-16T05:44:47;8.77;;;4.57;;
1925;SDS011;964;42.606;23.588;2023-07-16T05:47:15;5.23;;;4.50;;
1925;SDS011;964;42.606;23.588;2023-07-16T05:49:41;5.20;;;4.27;;
1925;SDS011;964;42.606;23.588;2023-07-16T05:52:08;4.33;;;3.90;;
1925;SDS011;964;42.606;23.588;2023-07-16T05:54:34;4.40;;;4.00;;
1925;SDS011;964;42.606;23.588;2023-07-16T05:57:01;5.80;;;4.50;;
1925;SDS011;964;42.606;23.588;2023-07-16T05:59:28;5.90;;;5.23;;
1925;SDS011;964;42.606;23.588;2023-07-16T06:01:54;5.33;;;4.20;;
1925;SDS011;964;42.606;23.588;2023-07-16T06:04:24;6.90;;;4.70;;
1925;SDS011;964;42.606;23.588;2023-07-16T06:06:50;4.60;;;4.20;;
1925;SDS011;964;42.606;23.588;2023-07-16T06:09:17;6.97;;;4.90;;
1925;SDS011;964;42.606;23.588;2023-07-16T06:11:45;4.87;;;4.47;;
1925;SDS011;964;42.606;23.588;2023-07-16T06:14:12;4.37;;;4.07;;
1925;SDS011;964;42.606;23.588;2023-07-16T06:16:39;5.73;;;4.60;;
1925;SDS011;964;42.606;23.588;2023-07-16T06:19:06;6.20;;;4.97;;
1925;SDS011;964;42.606;23.588;2023-07-16T06:21:34;4.40;;;4.00;;
1925;SDS011;964;42.606;23.588;2023-07-16T06:24:00;7.80;;;4.50;;
1925;SDS011;964;42.606;23.588;2023-07-16T06:26:27;5.23;;;4.70;;
1925;SDS011;964;42.606;23.588;2023-07-16T06:28:54;5.10;;;4.57;;
1925;SDS011;964;42.606;23.588;2023-07-16T06:31:20;6.00;;;4.53;;
1925;SDS011;964;42.606;23.588;2023-07-16T06:33:47;5.90;;;4.83;;
1925;SDS011;964;42.606;23.588;2023-07-16T06:36:15;5.67;;;4.70;;
1925;SDS011;964;42.606;23.588;2023-07-16T06:38:43;4.80;;;4.23;;
1925;SDS011;964;42.606;23.588;2023-07-16T06:41:10;8.43;;;3.97;;
1925;SDS011;964;42.606;23.588;2023-07-16T06:43:37;6.27;;;5.23;;
1925;SDS011;964;42.606;23.588;2023-07-16T06:46:03;6.13;;;4.83;;
1925;SDS011;964;42.606;23.588;2023-07-16T06:48:30;6.27;;;5.27;;
1925;SDS011;964;42.606;23.588;2023-07-16T06:50:58;6.30;;;5.10;;
1925;SDS011;964;42.606;23.588;2023-07-16T06:53:25;4.87;;;4.40;;
1925;SDS011;964;42.606;23.588;2023-07-16T06:55:53;5.13;;;4.20;;
1925;SDS011;964;42.606;23.588;2023-07-16T06:58:20;5.20;;;4.80;;
1925;SDS011;964;42.606;23.588;2023-07-16T07:00:57;5.17;;;4.73;;
1925;SDS011;964;42.606;23.588;2023-07-16T07:03:24;6.80;;;5.17;;
1925;SDS011;964;42.606;23.588;2023-07-16T07:05:51;5.10;;;4.60;;
1925;SDS011;964;42.606;23.588;2023-07-16T07:08:17;4.80;;;4.43;;
1925;SDS011;964;42.606;23.588;2023-07-16T07:10:44;5.30;;;4.80;;
1925;SDS011;964;42.606;23.588;2023-07-16T07:13:13;9.23;;;5.30;;
1925;SDS011;964;42.606;23.588;2023-07-16T07:15:41;6.50;;;5.10;;
1925;SDS011;964;42.606;23.588;2023-07-16T07:18:08;5.10;;;4.70;;
1925;SDS011;964;42.606;23.588;2023-07-16T07:20:34;4.73;;;4.33;;
1925;SDS011;964;42.606;23.588;2023-07-16T07:23:01;5.10;;;4.60;;
1925;SDS011;964;42.606;23.588;2023-07-16T07:25:28;5.10;;;4.70;;
1925;SDS011;964;42.606;23.588;2023-07-16T07:27:54;5.90;;;5.17;;
1925;SDS011;964;42.606;23.588;2023-07-16T07:30:23;6.37;;;5.70;;
1925;SDS011;964;42.606;23.588;2023-07-16T07:32:49;8.13;;;5.40;;
1925;SDS011;964;42.606;23.588;2023-07-16T07:35:16;5.27;;;4.80;;
1925;SDS011;964;42.606;23.588;2023-07-16T07:37:43;6.00;;;4.77;;
1925;SDS011;964;42.606;23.588;2023-07-16T07:40:10;6.40;;;5.53;;
1925;SDS011;964;42.606;23.588;2023-07-16T07:42:37;7.43;;;5.17;;
1925;SDS011;964;42.606;23.588;2023-07-16T07:45:04;7.17;;;5.00;;
1925;SDS011;964;42.606;23.588;2023-07-16T07:47:32;6.67;;;5.57;;
1925;SDS011;964;42.606;23.588;2023-07-16T07:49:59;5.83;;;5.30;;
1925;SDS011;964;42.606;23.588;2023-07-16T07:52:26;8.40;;;5.23;;
1925;SDS011;964;42.606;23.588;2023-07-16T07:54:53;6.80;;;5.00;;
1925;SDS011;964;42.606;23.588;2023-07-16T07:57:20;9.00;;;5.00;;
1925;SDS011;964;42.606;23.588;2023-07-16T07:59:47;5.80;;;5.30;;
1925;SDS011;964;42.606;23.588;2023-07-16T08:02:16;7.53;;;5.47;;
1925;SDS011;964;42.606;23.588;2023-07-16T08:04:45;8.10;;;5.20;;
1925;SDS011;964;42.606;23.588;2023-07-16T08:07:12;6.67;;;5.20;;
1925;SDS011;964;42.606;23.588;2023-07-16T08:09:38;6.90;;;5.27;;
1925;SDS011;964;42.606;23.588;2023-07-16T08:12:05;5.47;;;4.97;;
1925;SDS011;964;42.606;23.588;2023-07-16T08:14:32;6.93;;;5.00;;
1925;SDS011;964;42.606;23.588;2023-07-16T08:16:58;6.47;;;5.87;;
1925;SDS011;964;42.606;23.588;2023-07-16T08:19:25;5.53;;;5.03;;
1925;SDS011;964;42.606;23.588;2023-07-16T08:21:53;6.73;;;5.10;;
1925;SDS011;964;42.606;23.588;2023-07-16T08:24:20;6.20;;;5.60;;
1925;SDS011;964;42.606;23.588;2023-07-16T08:38:09;5.78;;;5.28;;
1925;SDS011;964;42.606;23.588;2023-07-16T08:40:36;6.10;;;5.50;;
1925;SDS011;964;42.606;23.588;2023-07-16T08:43:03;6.75;;;5.50;;
1925;SDS011;964;42.606;23.588;2023-07-16T08:45:32;7.07;;;6.15;;
1925;SDS011;964;42.606;23.588;2023-07-16T08:48:04;6.20;;;5.63;;
1925;SDS011;964;42.606;23.588;2023-07-16T08:50:32;6.80;;;6.15;;
1925;SDS011;964;42.606;23.588;2023-07-16T08:53:01;6.47;;;5.88;;
1925;SDS011;964;42.606;23.588;2023-07-16T08:55:33;6.85;;;5.68;;
1925;SDS011;964;42.606;23.588;2023-07-16T08:58:01;8.68;;;6.75;;
1925;SDS011;964;42.606;23.588;2023-07-16T09:00:30;8.63;;;5.85;;
1925;SDS011;964;42.606;23.588;2023-07-16T09:02:58;8.48;;;6.60;;
1925;SDS011;964;42.606;23.588;2023-07-16T09:05:24;6.50;;;5.90;;
1925;SDS011;964;42.606;23.588;2023-07-16T09:07:51;7.07;;;6.47;;
1925;SDS011;964;42.606;23.588;2023-07-16T09:10:18;7.07;;;6.20;;
1925;SDS011;964;42.606;23.588;2023-07-16T09:12:46;7.03;;;5.97;;
1925;SDS011;964;42.606;23.588;2023-07-16T09:15:15;7.28;;;6.05;;
1925;SDS011;964;42.606;23.588;2023-07-16T09:17:46;10.27;;;6.30;;
1925;SDS011;964;42.606;23.588;2023-07-16T09:20:14;6.63;;;6.00;;
1925;SDS011;964;42.606;23.588;2023-07-16T09:22:41;8.23;;;6.20;;
1925;SDS011;964;42.606;23.588;2023-07-16T09:25:08;12.98;;;7.60;;
1925;SDS011;964;42.606;23.588;2023-07-16T09:27:35;10.13;;;7.07;;
1925;SDS011;964;42.606;23.588;2023-07-16T09:30:04;7.13;;;6.45;;
1925;SDS011;964;42.606;23.588;2023-07-16T09:32:32;6.63;;;6.03;;
1925;SDS011;964;42.606;23.588;2023-07-16T09:34:59;6.88;;;6.28;;
1925;SDS011;964;42.606;23.588;2023-07-16T09:37:26;7.47;;;6.78;;
1925;SDS011;964;42.606;23.588;2023-07-16T09:39:54;7.13;;;6.53;;
1925;SDS011;964;42.606;23.588;2023-07-16T09:42:21;9.20;;;8.25;;
1925;SDS011;964;42.606;23.588;2023-07-16T09:44:49;7.43;;;6.85;;
1925;SDS011;964;42.606;23.588;2023-07-16T09:47:20;8.40;;;7.60;;
1925;SDS011;964;42.606;23.588;2023-07-16T09:49:47;8.23;;;7.13;;
1925;SDS011;964;42.606;23.588;2023-07-16T09:52:13;8.40;;;7.60;;
1925;SDS011;964;42.606;23.588;2023-07-16T09:54:40;7.43;;;6.80;;
1925;SDS011;964;42.606;23.588;2023-07-16T09:57:08;7.88;;;7.07;;
1925;SDS011;964;42.606;23.588;2023-07-16T09:59:35;9.13;;;7.65;;
1925;SDS011;964;42.606;23.588;2023-07-16T10:02:02;15.52;;;7.03;;
1925;SDS011;964;42.606;23.588;2023-07-16T10:04:38;8.23;;;6.47;;
1925;SDS011;964;42.606;23.588;2023-07-16T10:07:05;7.78;;;7.07;;
1925;SDS011;964;42.606;23.588;2023-07-16T10:09:33;8.90;;;8.00;;
1925;SDS011;964;42.606;23.588;2023-07-16T10:12:07;11.98;;;7.25;;
1925;SDS011;964;42.606;23.588;2023-07-16T10:14:41;8.60;;;7.90;;
1925;SDS011;964;42.606;23.588;2023-07-16T10:17:11;7.40;;;6.63;;
1925;SDS011;964;42.606;23.588;2023-07-16T10:19:51;8.00;;;7.30;;
1925;SDS011;964;42.606;23.588;2023-07-16T10:22:30;8.32;;;7.53;;
1925;SDS011;964;42.606;23.588;2023-07-16T10:24:59;8.30;;;7.60;;
1925;SDS011;964;42.606;23.588;2023-07-16T10:27:26;8.82;;;8.02;;
1925;SDS011;964;42.606;23.588;2023-07-16T10:29:54;11.52;;;8.65;;
1925;SDS011;964;42.606;23.588;2023-07-16T10:32:21;9.27;;;8.02;;
1925;SDS011;964;42.606;23.588;2023-07-16T10:34:51;9.52;;;8.07;;
1925;SDS011;964;42.606;23.588;2023-07-16T10:37:17;17.85;;;10.30;;
1925;SDS011;964;42.606;23.588;2023-07-16T10:39:45;15.93;;;8.82;;
1925;SDS011;964;42.606;23.588;2023-07-16T10:42:13;10.60;;;8.60;;
1925;SDS011;964;42.606;23.588;2023-07-16T10:44:39;9.02;;;8.02;;
1925;SDS011;964;42.606;23.588;2023-07-16T10:47:06;9.07;;;8.18;;
1925;SDS011;964;42.606;23.588;2023-07-16T10:49:33;12.45;;;9.15;;
1925;SDS011;964;42.606;23.588;2023-07-16T10:52:02;10.23;;;9.30;;
1925;SDS011;964;42.606;23.588;2023-07-16T10:54:28;10.57;;;8.95;;
1925;SDS011;964;42.606;23.588;2023-07-16T10:56:55;9.27;;;8.48;;
1925;SDS011;964;42.606;23.588;2023-07-16T10:59:22;9.60;;;8.68;;
1925;SDS011;964;42.606;23.588;2023-07-16T11:01:48;10.30;;;8.93;;
1925;SDS011;964;42.606;23.588;2023-07-16T11:04:16;9.57;;;8.75;;
1925;SDS011;964;42.606;23.588;2023-07-16T11:06:43;12.63;;;9.77;;
1925;SDS011;964;42.606;23.588;2023-07-16T11:09:11;11.80;;;9.27;;
1925;SDS011;964;42.606;23.588;2023-07-16T11:11:37;9.35;;;8.27;;
1925;SDS011;964;42.606;23.588;2023-07-16T11:14:05;10.43;;;9.52;;
1925;SDS011;964;42.606;23.588;2023-07-16T11:16:33;9.25;;;8.45;;
1925;SDS011;964;42.606;23.588;2023-07-16T11:19:01;11.57;;;8.48;;
1925;SDS011;964;42.606;23.588;2023-07-16T11:21:28;9.90;;;8.95;;
1925;SDS011;964;42.606;23.588;2023-07-16T11:23:55;9.75;;;8.68;;
1925;SDS011;964;42.606;23.588;2023-07-16T11:26:23;11.38;;;9.00;;
1925;SDS011;964;42.606;23.588;2023-07-16T11:28:50;12.23;;;9.88;;
1925;SDS011;964;42.606;23.588;2023-07-16T11:31:17;10.85;;;8.63;;
1925;SDS011;964;42.606;23.588;2023-07-16T11:33:44;14.07;;;8.95;;
1925;SDS011;964;42.606;23.588;2023-07-16T11:36:11;9.30;;;8.40;;
1925;SDS011;964;42.606;23.588;2023-07-16T11:38:38;8.25;;;7.55;;
1925;SDS011;964;42.606;23.588;2023-07-16T11:41:05;9.25;;;8.35;;
1925;SDS011;964;42.606;23.588;2023-07-16T11:43:37;9.55;;;8.25;;
1925;SDS011;964;42.606;23.588;2023-07-16T11:46:14;9.80;;;8.52;;
1925;SDS011;964;42.606;23.588;2023-07-16T11:48:41;9.43;;;8.48;;
1925;SDS011;964;42.606;23.588;2023-07-16T11:51:08;9.70;;;8.80;;
1925;SDS011;964;42.606;23.588;2023-07-16T11:53:34;9.80;;;8.90;;
1925;SDS011;964;42.606;23.588;2023-07-16T11:56:01;9.63;;;8.68;;
1925;SDS011;964;42.606;23.588;2023-07-16T11:58:27;11.07;;;8.60;;
1925;SDS011;964;42.606;23.588;2023-07-16T12:00:55;9.77;;;8.85;;
1925;SDS011;964;42.606;23.588;2023-07-16T12:03:22;10.60;;;9.48;;
1925;SDS011;964;42.606;23.588;2023-07-16T12:05:49;8.80;;;8.00;;
1925;SDS011;964;42.606;23.588;2023-07-16T12:08:15;9.55;;;8.60;;
1925;SDS011;964;42.606;23.588;2023-07-16T12:10:42;9.05;;;8.15;;
1925;SDS011;964;42.606;23.588;2023-07-16T12:13:08;9.10;;;8.23;;
1925;SDS011;964;42.606;23.588;2023-07-16T12:15:35;9.00;;;8.20;;
1925;SDS011;964;42.606;23.588;2023-07-16T12:18:03;9.05;;;8.10;;
1925;SDS011;964;42.606;23.588;2023-07-16T12:20:30;9.63;;;8.82;;
1925;SDS011;964;42.606;23.588;2023-07-16T12:22:56;10.45;;;9.48;;
1925;SDS011;964;42.606;23.588;2023-07-16T12:25:23;15.57;;;9.10;;
1925;SDS011;964;42.606;23.588;2023-07-16T12:27:49;8.38;;;7.57;;
1925;SDS011;964;42.606;23.588;2023-07-16T12:30:16;8.88;;;8.07;;
1925;SDS011;964;42.606;23.588;2023-07-16T12:32:43;9.00;;;7.85;;
1925;SDS011;964;42.606;23.588;2023-07-16T12:35:11;8.98;;;8.18;;
1925;SDS011;964;42.606;23.588;2023-07-16T12:37:37;8.40;;;7.57;;
1925;SDS011;964;42.606;23.588;2023-07-16T12:40:04;8.45;;;7.68;;
1925;SDS011;964;42.606;23.588;2023-07-16T12:42:32;9.48;;;8.00;;
1925;SDS011;964;42.606;23.588;2023-07-16T12:44:59;8.15;;;7.45;;
1925;SDS011;964;42.606;23.588;2023-07-16T12:47:27;8.50;;;7.80;;
1925;SDS011;964;42.606;23.588;2023-07-16T12:49:53;14.80;;;8.35;;
1925;SDS011;964;42.606;23.588;2023-07-16T12:52:22;9.52;;;8.10;;
1925;SDS011;964;42.606;23.588;2023-07-16T12:54:49;9.63;;;8.68;;
1925;SDS011;964;42.606;23.588;2023-07-16T12:57:16;9.23;;;7.72;;
1925;SDS011;964;42.606;23.588;2023-07-16T12:59:43;8.63;;;7.80;;
1925;SDS011;964;42.606;23.588;2023-07-16T13:02:10;10.57;;;7.72;;
1925;SDS011;964;42.606;23.588;2023-07-16T13:04:36;8.88;;;8.15;;
1925;SDS011;964;42.606;23.588;2023-07-16T13:07:03;7.43;;;6.82;;
1925;SDS011;964;42.606;23.588;2023-07-16T13:09:31;8.65;;;7.95;;
1925;SDS011;964;42.606;23.588;2023-07-16T13:11:58;8.57;;;7.80;;
1925;SDS011;964;42.606;23.588;2023-07-16T13:14:25;8.85;;;8.10;;
1925;SDS011;964;42.606;23.588;2023-07-16T13:16:52;11.38;;;8.30;;
1925;SDS011;964;42.606;23.588;2023-07-16T13:19:19;8.10;;;7.30;;
1925;SDS011;964;42.606;23.588;2023-07-16T13:21:45;11.57;;;8.30;;
1925;SDS011;964;42.606;23.588;2023-07-16T13:24:12;8.40;;;7.70;;
1925;SDS011;964;42.606;23.588;2023-07-16T13:26:40;10.07;;;8.02;;
1925;SDS011;964;42.606;23.588;2023-07-16T13:29:06;9.90;;;8.88;;
1925;SDS011;964;42.606;23.588;2023-07-16T13:31:33;14.05;;;9.20;;
1925;SDS011;964;42.606;23.588;2023-07-16T13:33:59;9.73;;;8.80;;
1925;SDS011;964;42.606;23.588;2023-07-16T13:36:26;8.93;;;8.13;;
1925;SDS011;964;42.606;23.588;2023-07-16T13:38:53;9.48;;;8.48;;
1925;SDS011;964;42.606;23.588;2023-07-16T13:41:19;18.52;;;9.38;;
1925;SDS011;964;42.606;23.588;2023-07-16T13:43:48;9.60;;;8.32;;
1925;SDS011;964;42.606;23.588;2023-07-16T13:46:15;8.98;;;8.07;;
1925;SDS011;964;42.606;23.588;2023-07-16T13:48:41;8.95;;;8.05;;
1925;SDS011;964;42.606;23.588;2023-07-16T13:51:08;9.07;;;8.13;;
1925;SDS011;964;42.606;23.588;2023-07-16T13:53:34;10.43;;;8.57;;
1925;SDS011;964;42.606;23.588;2023-07-16T13:56:01;9.13;;;8.32;;
1925;SDS011;964;42.606;23.588;2023-07-16T13:58:28;10.27;;;8.45;;
1925;SDS011;964;42.606;23.588;2023-07-16T14:00:56;9.20;;;8.30;;
1925;SDS011;964;42.606;23.588;2023-07-16T14:03:23;8.52;;;7.78;;
1925;SDS011;964;42.606;23.588;2023-07-16T14:05:51;10.05;;;8.23;;
1925;SDS011;964;42.606;23.588;2023-07-16T14:08:17;8.38;;;7.68;;
1925;SDS011;964;42.606;23.588;2023-07-16T14:10:44;8.23;;;7.43;;
1925;SDS011;964;42.606;23.588;2023-07-16T14:13:10;8.60;;;7.80;;
1925;SDS011;964;42.606;23.588;2023-07-16T14:15:37;9.52;;;7.95;;
1925;SDS011;964;42.606;23.588;2023-07-16T14:18:05;8.30;;;7.65;;
1925;SDS011;964;42.606;23.588;2023-07-16T14:20:32;9.20;;;8.35;;
1925;SDS011;964;42.606;23.588;2023-07-16T14:22:59;8.65;;;7.88;;
1925;SDS011;964;42.606;23.588;2023-07-16T14:25:25;8.40;;;7.60;;
1925;SDS011;964;42.606;23.588;2023-07-16T14:27:52;7.93;;;7.13;;
1925;SDS011;964;42.606;23.588;2023-07-16T14:30:19;12.77;;;7.93;;
1925;SDS011;964;42.606;23.588;2023-07-16T14:32:45;9.20;;;8.30;;
1925;SDS011;964;42.606;23.588;2023-07-16T14:35:13;9.25;;;8.35;;
1925;SDS011;964;42.606;23.588;2023-07-16T14:37:41;8.50;;;7.75;;
1925;SDS011;964;42.606;23.588;2023-07-16T14:40:08;9.90;;;9.00;;
1925;SDS011;964;42.606;23.588;2023-07-16T14:42:35;8.80;;;7.82;;
1925;SDS011;964;42.606;23.588;2023-07-16T14:45:02;9.40;;;7.95;;
1925;SDS011;964;42.606;23.588;2023-07-16T14:47:29;9.57;;;8.40;;
1925;SDS011;964;42.606;23.588;2023-07-16T14:49:56;8.45;;;7.78;;
1925;SDS011;964;42.606;23.588;2023-07-16T14:52:24;12.65;;;8.55;;
1925;SDS011;964;42.606;23.588;2023-07-16T14:54:51;8.82;;;8.02;;
1925;SDS011;964;42.606;23.588;2023-07-16T14:57:18;9.68;;;8.57;;
1925;SDS011;964;42.606;23.588;2023-07-16T14:59:44;11.60;;;8.32;;
1925;SDS011;964;42.606;23.588;2023-07-16T15:02:11;11.15;;;9.15;;
1925;SDS011;964;42.606;23.588;2023-07-16T15:04:37;10.48;;;9.00;;
1925;SDS011;964;42.606;23.588;2023-07-16T15:07:05;8.80;;;8.10;;
1925;SDS011;964;42.606;23.588;2023-07-16T15:09:33;9.55;;;8.68;;
1925;SDS011;964;42.606;23.588;2023-07-16T15:12:03;15.75;;;9.68;;
1925;SDS011;964;42.606;23.588;2023-07-16T15:14:30;13.90;;;9.80;;
1925;SDS011;964;42.606;23.588;2023-07-16T15:16:56;9.85;;;8.95;;
1925;SDS011;964;42.606;23.588;2023-07-16T15:19:23;9.77;;;8.55;;
1925;SDS011;964;42.606;23.588;2023-07-16T15:21:50;10.13;;;9.13;;
1925;SDS011;964;42.606;23.588;2023-07-16T15:24:16;9.02;;;8.23;;